Time;durP1;ratioP1;P1;durP2;ratioP2;P2;SDS_P1;SDS_P2;PMS_P1;PMS_P2;Temp;Humidity;BMP_temperature;BMP_pressure;BME280_temperature;BME280_humidity;BME280_pressure;Samples;Min_cycle;Max_cycle;Signal;HPM_P1;HPM_P2
2020/12/13 00:02:24;;;;;;;1.80;1.70;;;;;;;5.94;93.68;94592.06;5068568;28;20263;-74
2020/12/13 00:04:51;;;;;;;1.77;1.67;;;;;;;5.98;93.63;94602.72;5053011;28;20205;-75
2020/12/13 00:07:17;;;;;;;1.67;1.57;;;;;;;6.02;93.69;94592.00;5055069;28;20247;-74
2020/12/13 00:09:43;;;;;;;1.80;1.60;;;;;;;6.08;93.17;94601.53;5073106;28;20208;-75
2020/12/13 00:12:09;;;;;;;1.80;1.70;;;;;;;6.06;92.80;94595.78;5056101;28;20226;-75
2020/12/13 00:14:35;;;;;;;1.70;1.60;;;;;;;6.09;92.51;94600.56;5062611;28;20189;-75
2020/12/13 00:17:01;;;;;;;1.90;1.80;;;;;;;6.12;92.17;94599.44;5052787;28;20209;-75
2020/12/13 00:19:27;;;;;;;1.60;1.50;;;;;;;6.06;92.51;94602.66;5060471;28;20193;-75
2020/12/13 00:21:55;;;;;;;1.60;1.50;;;;;;;6.06;92.08;94605.22;5072654;28;20266;-75
2020/12/13 00:24:23;;;;;;;2.37;1.40;;;;;;;6.02;92.17;94609.06;5051687;28;20201;-75
2020/12/13 00:26:50;;;;;;;1.50;1.37;;;;;;;5.92;92.81;94611.88;5052853;28;20212;-74
2020/12/13 00:29:16;;;;;;;1.90;1.70;;;;;;;5.97;92.96;94608.78;5070658;28;20196;-75
2020/12/13 00:31:42;;;;;;;1.43;1.33;;;;;;;5.94;92.42;94606.59;5056655;28;20225;-75
2020/12/13 00:34:09;;;;;;;1.83;1.70;;;;;;;5.92;92.66;94616.19;5069422;28;20220;-75
2020/12/13 00:36:35;;;;;;;1.40;1.30;;;;;;;5.94;92.80;94606.59;5058717;28;20201;-74
2020/12/13 00:39:01;;;;;;;1.40;1.30;;;;;;;5.95;92.66;94613.31;5052269;28;20275;-75
2020/12/13 00:41:28;;;;;;;1.43;1.33;;;;;;;5.93;93.18;94623.69;5063930;28;20220;-75
2020/12/13 00:43:54;;;;;;;2.17;1.37;;;;;;;6.00;92.66;94619.47;5056818;28;20198;-74
2020/12/13 00:46:20;;;;;;;1.40;1.30;;;;;;;5.98;93.04;94628.25;5032254;28;20205;-75
2020/12/13 00:48:45;;;;;;;1.53;1.43;;;;;;;5.92;92.76;94626.41;5032249;28;20210;-74
2020/12/13 00:51:11;;;;;;;1.33;1.23;;;;;;;5.93;93.20;94623.69;5050658;28;20228;-75
2020/12/13 00:53:37;;;;;;;1.23;1.20;;;;;;;5.92;93.36;94631.53;5038977;28;20294;-75
2020/12/13 00:56:03;;;;;;;1.60;1.50;;;;;;;5.95;92.38;94639.66;5032140;28;20202;-75
2020/12/13 00:58:30;;;;;;;1.63;1.53;;;;;;;6.05;92.37;94644.50;5054670;28;20246;-75
2020/12/13 01:00:56;;;;;;;1.60;1.50;;;;;;;6.08;91.58;94644.97;5072011;28;20247;-74
2020/12/13 01:03:22;;;;;;;1.50;1.40;;;;;;;6.02;91.68;94653.31;5061406;28;20706;-75
2020/12/13 01:05:48;;;;;;;1.60;1.50;;;;;;;6.00;91.66;94650.13;5052080;28;20205;-75
2020/12/13 01:08:13;;;;;;;1.43;1.33;;;;;;;6.02;92.21;94647.41;5060672;28;20193;-77
2020/12/13 01:10:39;;;;;;;1.50;1.40;;;;;;;6.04;92.21;94658.25;5071997;28;20289;-75
2020/12/13 01:13:05;;;;;;;1.67;1.40;;;;;;;6.03;92.84;94665.13;5063849;28;20216;-74
2020/12/13 01:15:32;;;;;;;2.70;1.40;;;;;;;6.09;92.63;94667.00;5051663;28;20205;-74
2020/12/13 01:17:58;;;;;;;1.40;1.30;;;;;;;6.13;92.69;94670.81;5057911;28;20204;-75
2020/12/13 01:20:24;;;;;;;1.37;1.27;;;;;;;6.12;92.71;94666.66;5072126;28;20208;-75
2020/12/13 01:22:51;;;;;;;1.30;1.20;;;;;;;6.15;92.75;94674.00;5066293;28;20686;-75
2020/12/13 01:25:17;;;;;;;1.50;1.40;;;;;;;6.19;92.82;94679.53;5051841;28;20201;-74
2020/12/13 01:27:43;;;;;;;1.93;1.40;;;;;;;6.19;92.61;94676.97;5055643;28;20192;-74
2020/12/13 01:30:10;;;;;;;3.27;1.80;;;;;;;6.18;92.68;94680.50;5071777;28;20197;-75
2020/12/13 01:32:37;;;;;;;1.50;1.40;;;;;;;6.23;92.02;94683.34;5068312;28;20232;-75
2020/12/13 01:35:05;;;;;;;1.60;1.50;;;;;;;6.27;91.99;94688.91;5062228;28;20224;-75
2020/12/13 01:37:31;;;;;;;1.60;1.50;;;;;;;6.21;92.10;94691.16;5063991;28;20205;-74
2020/12/13 01:39:57;;;;;;;1.47;1.37;;;;;;;6.23;92.11;94689.25;5056050;28;20201;-76
2020/12/13 01:42:23;;;;;;;1.50;1.40;;;;;;;6.14;92.68;94690.28;5063527;28;20722;-75
2020/12/13 01:44:49;;;;;;;1.10;1.10;;;;;;;6.09;92.91;94690.00;5055569;28;20205;-75
2020/12/13 01:47:14;;;;;;;1.20;1.20;;;;;;;6.02;93.27;94690.84;5063907;28;20204;-76
2020/12/13 01:49:46;;;;;;;1.20;1.10;;;;;;;5.98;93.62;94692.94;5058426;28;20624;-76
2020/12/13 01:55:04;;;;;;;1.10;1.10;;;;;;;6.10;93.73;94699.25;5070948;28;20678;-76
2020/12/13 01:57:34;;;;;;;1.03;1.03;;;;;;;6.09;93.83;94704.53;5066917;28;20197;-74
2020/12/13 02:00:05;;;;;;;1.13;1.10;;;;;;;6.10;93.67;94709.47;5057705;28;20208;-74
2020/12/13 02:02:35;;;;;;;1.10;1.10;;;;;;;6.07;94.24;94703.91;5075777;28;20224;-76
2020/12/13 02:05:04;;;;;;;1.10;1.10;;;;;;;6.10;93.95;94706.91;5064041;28;20209;-76
2020/12/13 02:07:30;;;;;;;1.73;1.10;;;;;;;6.15;94.04;94709.75;5055581;28;20280;-75
2020/12/13 02:09:56;;;;;;;1.27;1.17;;;;;;;6.13;93.74;94703.22;5064208;28;20204;-77
2020/12/13 02:12:22;;;;;;;1.00;1.00;;;;;;;6.16;93.88;94705.41;5055323;28;20221;-74
2020/12/13 02:14:48;;;;;;;1.47;0.93;;;;;;;6.16;94.11;94707.97;5062911;28;20201;-77
2020/12/13 02:17:15;;;;;;;1.30;1.20;;;;;;;6.20;93.74;94706.69;5060283;28;20678;-76
2020/12/13 02:19:40;;;;;;;1.20;1.10;;;;;;;6.17;93.77;94709.56;5074324;28;20215;-74
2020/12/13 02:22:12;;;;;;;1.00;1.00;;;;;;;6.16;93.88;94716.44;5057994;28;20217;-75
2020/12/13 02:24:38;;;;;;;1.30;1.10;;;;;;;6.14;94.12;94718.41;5054978;28;20213;-76
2020/12/13 02:27:07;;;;;;;1.23;1.13;;;;;;;6.13;93.95;94721.13;5056355;28;20198;-76
2020/12/13 02:29:33;;;;;;;0.90;0.90;;;;;;;6.11;93.87;94718.72;5055533;28;20252;-76
2020/12/13 02:31:59;;;;;;;1.10;1.10;;;;;;;6.17;94.02;94724.91;5056097;28;20228;-74
2020/12/13 02:34:25;;;;;;;1.30;1.20;;;;;;;6.11;94.50;94716.19;5054925;28;20205;-75
2020/12/13 02:36:51;;;;;;;1.10;1.10;;;;;;;6.08;94.65;94725.94;5070075;28;20211;-75
2020/12/13 02:39:18;;;;;;;1.43;1.20;;;;;;;6.14;94.83;94732.94;5074986;28;20204;-75
2020/12/13 02:41:43;;;;;;;1.40;1.30;;;;;;;6.09;95.09;94730.09;5059404;28;20388;-75
2020/12/13 02:44:09;;;;;;;1.30;1.20;;;;;;;6.12;95.09;94737.41;5054696;28;20197;-76
2020/12/13 02:46:35;;;;;;;1.37;1.27;;;;;;;6.19;94.29;94733.19;5066150;28;20258;-76
2020/12/13 02:49:01;;;;;;;1.40;1.30;;;;;;;6.11;95.44;94736.63;5074529;28;20209;-75
2020/12/13 02:51:27;;;;;;;1.50;1.40;;;;;;;6.11;94.90;94736.63;5061859;28;20226;-77
2020/12/13 02:53:53;;;;;;;1.23;1.20;;;;;;;6.19;94.95;94733.19;5061197;28;20683;-75
2020/12/13 02:56:20;;;;;;;1.37;1.27;;;;;;;6.20;94.66;94745.00;5074417;28;20197;-76
2020/12/13 02:58:46;;;;;;;1.50;1.40;;;;;;;6.19;94.72;94748.53;5068770;28;20201;-74
2020/12/13 03:01:12;;;;;;;1.50;1.40;;;;;;;6.19;94.78;94751.88;5064022;28;20227;-75
2020/12/13 03:03:38;;;;;;;1.30;1.20;;;;;;;6.17;94.79;94745.34;5069843;28;20221;-78
2020/12/13 03:06:04;;;;;;;1.40;1.30;;;;;;;6.18;95.21;94752.03;5054161;28;20223;-76
2020/12/13 03:08:29;;;;;;;1.60;1.40;;;;;;;6.19;94.58;94751.88;5056039;28;20201;-76
2020/12/13 03:10:55;;;;;;;1.57;1.47;;;;;;;6.15;95.15;94755.75;5066597;28;20225;-75
2020/12/13 03:13:25;;;;;;;1.50;1.40;;;;;;;6.14;95.38;94753.38;5054109;28;20260;-75
2020/12/13 03:15:50;;;;;;;1.57;1.27;;;;;;;6.22;94.84;94758.41;5070669;28;20201;-76
2020/12/13 03:18:16;;;;;;;1.30;1.20;;;;;;;6.21;94.75;94755.06;5061295;28;20199;-76
2020/12/13 03:20:45;;;;;;;1.20;1.20;;;;;;;6.24;94.34;94748.81;5068988;28;20220;-74
2020/12/13 03:23:11;;;;;;;1.30;1.20;;;;;;;6.20;94.53;94761.13;5054042;28;20208;-77
2020/12/13 03:25:37;;;;;;;1.40;1.30;;;;;;;6.17;95.06;94756.38;5058158;28;20197;-75
2020/12/13 03:28:03;;;;;;;1.30;1.20;;;;;;;6.20;94.92;94762.91;5073993;28;20575;-76
2020/12/13 03:30:30;;;;;;;1.53;1.43;;;;;;;6.16;94.70;94765.00;5070911;28;20193;-75
2020/12/13 03:32:55;;;;;;;1.50;1.40;;;;;;;6.15;95.16;94771.09;5053893;28;20225;-76
2020/12/13 03:35:21;;;;;;;1.70;1.60;;;;;;;6.12;95.54;94773.97;5061299;28;20686;-76
2020/12/13 03:37:47;;;;;;;1.50;1.40;;;;;;;6.13;95.31;94770.47;5073716;28;20338;-77
2020/12/13 03:40:14;;;;;;;1.60;1.50;;;;;;;6.15;95.68;94778.75;5068881;28;20201;-74
2020/12/13 03:42:41;;;;;;;3.57;1.60;;;;;;;6.21;95.73;94779.81;5057779;28;20251;-75
2020/12/13 03:45:07;;;;;;;1.90;1.40;;;;;;;6.21;95.30;94777.28;5070024;28;20280;-75
2020/12/13 03:47:34;;;;;;;1.70;1.60;;;;;;;6.17;96.09;94781.13;5053497;28;20343;-75
2020/12/13 03:50:00;;;;;;;1.90;1.70;;;;;;;6.18;95.87;94786.06;5054930;28;20678;-75
2020/12/13 03:52:26;;;;;;;1.70;1.60;;;;;;;6.19;96.30;94786.88;5072979;28;20229;-75
2020/12/13 03:54:52;;;;;;;1.90;1.80;;;;;;;6.12;96.93;94783.41;5054474;28;20197;-75
2020/12/13 03:57:18;;;;;;;1.70;1.60;;;;;;;6.03;97.70;94790.31;5053126;28;20197;-77
2020/12/13 03:59:44;;;;;;;1.87;1.77;;;;;;;6.03;98.11;94794.63;5071298;28;20204;-74
2020/12/13 04:02:10;;;;;;;2.77;1.97;;;;;;;6.04;98.44;94793.66;5073203;28;20224;-75
2020/12/13 04:04:36;;;;;;;1.90;1.80;;;;;;;6.07;98.68;94789.03;5058687;28;20200;-75
2020/12/13 04:07:02;;;;;;;2.00;1.90;;;;;;;6.10;98.61;94796.34;5064092;28;20194;-75
2020/12/13 04:09:28;;;;;;;1.80;1.70;;;;;;;6.14;98.17;94786.59;5053112;28;20212;-75
2020/12/13 04:11:54;;;;;;;2.70;2.10;;;;;;;6.11;98.48;94795.41;5052416;28;20213;-75
2020/12/13 04:14:20;;;;;;;2.53;2.00;;;;;;;6.10;98.32;94795.56;5052185;28;20224;-75
2020/12/13 04:16:46;;;;;;;2.17;1.97;;;;;;;6.14;98.27;94800.16;5044014;28;20205;-76
2020/12/13 04:19:12;;;;;;;3.10;2.10;;;;;;;6.15;97.97;94796.66;5063894;28;20412;-75
2020/12/13 04:21:39;;;;;;;2.03;1.93;;;;;;;6.21;98.32;94805.38;5073003;28;20225;-75
2020/12/13 04:24:05;;;;;;;2.50;2.30;;;;;;;6.16;97.77;94805.88;5064479;28;20198;-75
2020/12/13 04:26:32;;;;;;;2.13;2.03;;;;;;;6.24;97.31;94813.50;5072638;28;20591;-75
2020/12/13 04:28:58;;;;;;;2.30;2.10;;;;;;;6.26;97.37;94808.25;5064884;28;20664;-76
2020/12/13 04:31:24;;;;;;;2.50;2.30;;;;;;;6.32;96.74;94810.13;5061533;22;20225;-77
2020/12/13 04:33:49;;;;;;;2.53;2.33;;;;;;;6.35;97.00;94817.44;5026558;28;20246;-76
2020/12/13 04:36:17;;;;;;;3.33;2.30;;;;;;;6.36;96.34;94816.47;5012572;28;20249;-75
2020/12/13 04:38:44;;;;;;;3.07;2.10;;;;;;;6.36;96.76;94829.25;5016668;28;20205;-78
2020/12/13 04:41:10;;;;;;;2.13;2.00;;;;;;;6.33;96.44;94826.25;5043386;28;20247;-77
2020/12/13 04:43:36;;;;;;;2.40;2.20;;;;;;;6.35;96.46;94829.44;5037382;28;20190;-76
2020/12/13 04:46:02;;;;;;;3.27;2.17;;;;;;;6.43;96.22;94831.94;5052039;28;20205;-76
2020/12/13 04:48:28;;;;;;;3.10;2.27;;;;;;;6.40;96.38;94840.75;5037961;28;20290;-77
2020/12/13 04:50:57;;;;;;;2.40;2.20;;;;;;;6.34;96.91;94832.97;5032391;28;20218;-78
2020/12/13 04:53:28;;;;;;;4.77;2.27;;;;;;;6.29;97.32;94833.47;5044956;28;20236;-78
2020/12/13 04:55:56;;;;;;;2.40;2.20;;;;;;;6.30;97.17;94845.28;5040397;28;20198;-77
2020/12/13 04:58:24;;;;;;;2.80;2.60;;;;;;;6.32;97.39;94843.34;5032516;28;20351;-77
2020/12/13 05:00:54;;;;;;;2.60;2.40;;;;;;;6.30;97.52;94852.16;5041986;28;20217;-78
2020/12/13 05:03:20;;;;;;;3.00;2.70;;;;;;;6.32;97.14;94853.59;5051849;28;20229;-78
2020/12/13 05:05:46;;;;;;;3.20;2.90;;;;;;;6.33;97.39;94852.63;5033247;28;20210;-78
2020/12/13 05:08:12;;;;;;;2.87;2.67;;;;;;;6.26;98.15;94854.25;5032092;28;20207;-78
2020/12/13 05:10:38;;;;;;;3.37;2.93;;;;;;;6.30;98.17;94857.28;5032556;28;20218;-75
2020/12/13 05:13:06;;;;;;;3.13;2.87;;;;;;;6.28;98.20;94862.53;5032049;28;20733;-78
2020/12/13 05:15:33;;;;;;;3.10;2.90;;;;;;;6.23;98.54;94865.59;5047222;28;20289;-76
2020/12/13 05:17:59;;;;;;;3.60;2.63;;;;;;;6.26;99.22;94869.59;5031847;28;20673;-77
2020/12/13 05:20:27;;;;;;;3.20;2.90;;;;;;;6.27;98.76;94871.19;5033004;28;20775;-77
2020/12/13 05:22:54;;;;;;;3.93;3.20;;;;;;;6.33;98.43;94877.38;5031902;28;20680;-78
2020/12/13 05:25:27;;;;;;;3.77;3.47;;;;;;;6.34;98.61;94874.66;5046630;28;20613;-76
2020/12/13 05:27:55;;;;;;;3.73;3.40;;;;;;;6.34;98.29;94873.88;5051834;28;20200;-78
2020/12/13 05:30:27;;;;;;;3.60;3.30;;;;;;;6.37;98.39;94879.41;5036487;28;20245;-75
2020/12/13 05:32:59;;;;;;;3.57;3.27;;;;;;;6.39;98.34;94886.91;5032019;28;20251;-76
2020/12/13 05:35:27;;;;;;;3.87;3.53;;;;;;;6.43;98.16;94885.63;5047439;28;20204;-77
2020/12/13 05:37:53;;;;;;;3.83;3.53;;;;;;;6.39;98.46;94892.84;5051601;28;20262;-79
2020/12/13 05:40:19;;;;;;;4.23;3.83;;;;;;;6.47;98.18;94894.56;5033003;28;20339;-76
2020/12/13 05:42:54;;;;;;;4.00;3.60;;;;;;;6.44;97.88;94900.81;5046198;28;20229;-75
2020/12/13 05:45:30;;;;;;;4.17;3.77;;;;;;;6.48;97.82;94902.06;5032153;28;20623;-76
2020/12/13 05:51:04;;;;;;;5.00;3.90;;;;;;;6.47;98.16;94918.38;5051595;28;20334;-77
2020/12/13 05:53:31;;;;;;;4.60;4.20;;;;;;;6.37;99.13;94920.31;5032798;28;20787;-77
2020/12/13 05:55:57;;;;;;;5.13;3.97;;;;;;;6.36;99.05;94918.72;5049298;28;20197;-76
2020/12/13 05:58:24;;;;;;;4.13;3.80;;;;;;;6.43;98.90;94919.66;5031618;28;20252;-77
2020/12/13 06:00:51;;;;;;;4.17;3.80;;;;;;;6.39;98.78;94912.50;5047807;28;20251;-76
2020/12/13 06:03:28;;;;;;;4.53;4.13;;;;;;;6.39;98.97;94918.41;5049694;28;20255;-77
2020/12/13 06:05:55;;;;;;;4.10;3.70;;;;;;;6.42;98.83;94925.75;5031124;28;20206;-78
2020/12/13 06:08:23;;;;;;;4.30;3.90;;;;;;;6.43;98.87;94922.22;5032802;28;20218;-78
2020/12/13 06:10:52;;;;;;;4.23;3.80;;;;;;;6.37;99.76;94925.44;5050754;28;20231;-77
2020/12/13 06:13:19;;;;;;;5.20;4.50;;;;;;;6.43;99.36;94927.34;5032493;28;20222;-78
2020/12/13 06:15:46;;;;;;;4.30;3.90;;;;;;;6.47;98.71;94932.91;5043561;28;20236;-76
2020/12/13 06:18:12;;;;;;;4.13;3.77;;;;;;;6.46;99.05;94936.44;5039047;28;20194;-74
2020/12/13 06:20:41;;;;;;;4.33;3.80;;;;;;;6.46;99.13;94933.88;5046256;28;20279;-78
2020/12/13 06:23:08;;;;;;;5.30;4.00;;;;;;;6.50;98.97;94941.06;5039948;28;20209;-76
2020/12/13 06:25:34;;;;;;;4.43;3.90;;;;;;;6.47;99.35;94935.47;5047647;28;20198;-77
2020/12/13 06:28:00;;;;;;;4.10;3.70;;;;;;;6.50;99.12;94941.06;5047532;28;20208;-76
2020/12/13 06:30:27;;;;;;;4.47;4.07;;;;;;;6.45;100.00;94939.97;5041241;28;20592;-76
2020/12/13 06:32:53;;;;;;;4.63;4.10;;;;;;;6.45;99.45;94945.88;5044705;28;20226;-74
2020/12/13 06:35:19;;;;;;;4.63;4.10;;;;;;;6.47;99.68;94961.03;5038576;28;20319;-79
2020/12/13 06:37:47;;;;;;;4.67;4.20;;;;;;;6.40;100.00;94952.44;5050526;28;20288;-75
2020/12/13 06:40:19;;;;;;;4.47;3.93;;;;;;;6.36;100.00;94951.97;5034596;28;20673;-79
2020/12/13 06:42:46;;;;;;;4.43;4.03;;;;;;;6.44;100.00;94956.25;5049383;28;20200;-77
2020/12/13 06:45:13;;;;;;;4.40;4.00;;;;;;;6.49;100.00;94962.47;5048510;28;20198;-77
2020/12/13 06:47:41;;;;;;;4.90;4.40;;;;;;;6.40;100.00;94968.56;5047582;28;20680;-75
2020/12/13 06:50:09;;;;;;;5.90;4.60;;;;;;;6.40;100.00;94965.22;5047994;28;20202;-77
2020/12/13 06:52:36;;;;;;;4.73;4.23;;;;;;;6.46;100.00;94972.22;5037536;28;20725;-78
2020/12/13 06:55:04;;;;;;;5.17;4.33;;;;;;;6.52;100.00;94969.81;5052972;28;20228;-77
2020/12/13 06:57:32;;;;;;;5.33;4.47;;;;;;;6.50;100.00;94969.19;5046622;28;20191;-80
2020/12/13 07:00:03;;;;;;;5.60;4.57;;;;;;;6.49;100.00;94972.69;5034493;28;20665;-76
2020/12/13 07:02:54;;;;;;;4.80;4.27;;;;;;;6.49;100.00;94980.38;5045706;28;20194;-77
2020/12/13 07:05:21;;;;;;;4.83;4.33;;;;;;;6.54;100.00;94983.22;5038297;28;20281;-78
2020/12/13 07:07:51;;;;;;;5.37;4.67;;;;;;;6.53;100.00;94980.84;5039981;28;20204;-75
2020/12/13 07:10:19;;;;;;;5.60;4.43;;;;;;;6.50;100.00;94989.63;5036733;28;20229;-78
2020/12/13 07:12:49;;;;;;;5.53;4.70;;;;;;;6.50;100.00;94993.97;5046606;28;20214;-76
2020/12/13 07:15:21;;;;;;;4.60;4.07;;;;;;;6.51;100.00;94998.91;5044765;28;20198;-77
2020/12/13 07:17:48;;;;;;;5.00;4.50;;;;;;;6.56;100.00;95001.75;5035378;28;20269;-79
2020/12/13 07:20:14;;;;;;;5.40;4.73;;;;;;;6.48;100.00;94994.13;5034334;28;20198;-79
2020/12/13 07:22:40;;;;;;;5.63;4.90;;;;;;;6.44;100.00;95004.84;5035543;28;20198;-76
2020/12/13 07:25:06;;;;;;;6.20;4.67;;;;;;;6.47;100.00;95005.31;5047899;28;20194;-78
2020/12/13 07:27:34;;;;;;;5.30;4.60;;;;;;;6.53;100.00;95012.34;5047466;28;20202;-78
2020/12/13 07:30:00;;;;;;;5.13;4.63;;;;;;;6.55;100.00;95014.69;5034129;28;20613;-77
2020/12/13 07:32:26;;;;;;;5.30;4.80;;;;;;;6.56;100.00;95011.97;5050696;28;20200;-77
2020/12/13 07:34:53;;;;;;;8.30;5.47;;;;;;;6.61;100.00;95024.28;5041131;28;20202;-77
2020/12/13 07:37:21;;;;;;;5.07;4.57;;;;;;;6.65;100.00;95022.19;5045412;28;20198;-75
2020/12/13 07:39:47;;;;;;;5.47;4.73;;;;;;;6.66;100.00;95026.34;5039382;28;20293;-80
2020/12/13 07:42:13;;;;;;;5.70;4.80;;;;;;;6.60;100.00;95025.22;5033948;28;20237;-78
2020/12/13 07:44:40;;;;;;;5.60;5.10;;;;;;;6.64;100.00;95035.94;5033738;28;20198;-79
2020/12/13 07:47:06;;;;;;;5.33;4.83;;;;;;;6.63;100.00;95036.91;5033703;28;20230;-77
2020/12/13 07:49:32;;;;;;;6.53;5.00;;;;;;;6.66;99.94;95039.94;5033872;28;20573;-78
2020/12/13 07:51:58;;;;;;;5.50;5.00;;;;;;;6.59;100.00;95039.78;5033564;28;20228;-79
2020/12/13 07:54:26;;;;;;;6.50;5.13;;;;;;;6.66;100.00;95037.38;5032979;28;20280;-79
2020/12/13 07:56:54;;;;;;;6.40;5.50;;;;;;;6.50;100.00;95050.22;5033384;28;20577;-78
2020/12/13 07:59:21;;;;;;;6.47;5.67;;;;;;;6.53;100.00;95047.34;5033678;28;20206;-80
2020/12/13 08:01:49;;;;;;;11.77;9.53;;;;;;;6.54;100.00;95049.69;5033651;28;20226;-77
2020/12/13 08:04:16;;;;;;;10.37;8.53;;;;;;;6.65;100.00;95050.31;5033464;28;20202;-77
2020/12/13 08:06:42;;;;;;;6.57;5.97;;;;;;;6.68;100.00;95050.78;5033213;28;20206;-78
2020/12/13 08:09:10;;;;;;;6.23;5.63;;;;;;;6.65;100.00;95053.69;5033337;28;20204;-79
2020/12/13 08:11:36;;;;;;;6.17;5.57;;;;;;;6.71;100.00;95054.78;5033770;28;20744;-80
2020/12/13 08:14:04;;;;;;;6.70;5.67;;;;;;;6.62;100.00;95058.31;5033017;28;20218;-79
2020/12/13 08:16:30;;;;;;;6.80;5.40;;;;;;;6.65;100.00;95063.91;5032993;28;20194;-78
2020/12/13 08:19:04;;;;;;;6.17;5.57;;;;;;;6.69;99.99;95065.19;5033438;28;20202;-80
2020/12/13 08:21:37;;;;;;;6.23;5.40;;;;;;;6.67;99.70;95072.22;5033396;28;20233;-78
2020/12/13 08:24:04;;;;;;;6.43;5.73;;;;;;;6.74;99.65;95078.25;5033593;28;20202;-78
2020/12/13 08:26:31;;;;;;;6.40;5.80;;;;;;;6.75;99.67;95074.72;5033335;28;20202;-77
2020/12/13 08:29:00;;;;;;;6.67;5.73;;;;;;;6.77;99.21;95072.00;5032796;28;20724;-77
2020/12/13 08:31:29;;;;;;;6.30;5.70;;;;;;;6.66;100.00;95078.28;5032474;28;20245;-76
2020/12/13 08:34:03;;;;;;;6.23;5.60;;;;;;;6.71;99.92;95083.72;5032786;28;20233;-78
2020/12/13 08:36:29;;;;;;;8.13;5.70;;;;;;;6.68;100.00;95084.03;5032894;28;20209;-79
2020/12/13 08:39:04;;;;;;;9.17;7.03;;;;;;;6.70;99.89;95092.34;5032863;28;20206;-78
2020/12/13 08:41:30;;;;;;;6.43;5.60;;;;;;;6.60;100.00;95096.84;5043504;28;20220;-78
2020/12/13 08:43:56;;;;;;;5.90;5.30;;;;;;;6.67;100.00;95095.25;5045923;28;20201;-78
2020/12/13 08:46:32;;;;;;;6.33;5.20;;;;;;;6.73;100.00;95104.03;5032571;28;20568;-78
2020/12/13 08:48:57;;;;;;;5.93;5.33;;;;;;;6.69;100.00;95100.19;5034097;28;20284;-81
2020/12/13 08:51:27;;;;;;;5.50;5.00;;;;;;;6.63;100.00;95104.19;5033001;28;20232;-78
2020/12/13 08:53:57;;;;;;;6.17;5.33;;;;;;;6.61;100.00;95107.88;5032309;28;20249;-77
2020/12/13 08:56:31;;;;;;;5.53;5.03;;;;;;;6.59;100.00;95103.72;5031974;28;20202;-76
2020/12/13 08:58:57;;;;;;;5.03;4.50;;;;;;;6.52;100.00;95107.91;5011759;28;20299;-76
2020/12/13 09:01:26;;;;;;;6.27;5.00;;;;;;;6.55;100.00;95115.22;5042145;28;20303;-76
2020/12/13 09:03:52;;;;;;;4.90;4.50;;;;;;;6.55;100.00;95128.03;5036256;28;20204;-77
2020/12/13 09:06:27;;;;;;;5.87;5.10;;;;;;;6.58;100.00;95132.81;5036015;28;20201;-79
2020/12/13 09:08:53;;;;;;;5.03;4.63;;;;;;;6.65;100.00;95130.41;5031623;28;20213;-76
2020/12/13 09:11:29;;;;;;;5.70;4.70;;;;;;;6.66;100.00;95137.13;5031631;28;20213;-79
2020/12/13 09:13:55;;;;;;;4.93;4.43;;;;;;;6.67;100.00;95132.81;5049681;28;20312;-77
2020/12/13 09:16:28;;;;;;;5.33;4.20;;;;;;;6.61;100.00;95141.94;5044346;28;20306;-80
2020/12/13 09:19:04;;;;;;;5.37;4.27;;;;;;;6.57;99.92;95144.00;5043068;28;20201;-80
2020/12/13 09:21:52;;;;;;;4.63;4.23;;;;;;;6.56;100.00;95149.28;5041590;28;20969;-76
2020/12/13 09:24:20;;;;;;;5.20;4.70;;;;;;;6.58;100.00;95157.59;5030988;28;20715;-77
2020/12/13 09:27:04;;;;;;;6.33;5.40;;;;;;;6.56;99.49;95157.75;5041554;28;20212;-77
2020/12/13 09:29:32;;;;;;;4.00;3.57;;;;;;;6.61;99.09;95162.38;5034161;28;20247;-75
2020/12/13 09:31:58;;;;;;;3.20;3.00;;;;;;;6.66;98.21;95162.72;5042502;28;20859;-79
2020/12/13 09:34:24;;;;;;;3.97;3.40;;;;;;;6.62;98.93;95158.06;5033709;28;20731;-79
2020/12/13 09:36:51;;;;;;;3.47;3.17;;;;;;;6.65;98.62;95173.91;5040608;28;20189;-76
2020/12/13 09:39:17;;;;;;;4.37;3.60;;;;;;;6.57;99.42;95171.34;5036237;28;20202;-78
2020/12/13 09:41:43;;;;;;;3.23;3.00;;;;;;;6.54;99.46;95175.00;5039170;28;20225;-79
2020/12/13 09:44:09;;;;;;;3.73;3.10;;;;;;;6.56;99.79;95167.19;5050860;28;20204;-78
2020/12/13 09:46:35;;;;;;;3.10;2.80;;;;;;;6.55;100.00;95175.81;5043747;28;20198;-79
2020/12/13 09:49:01;;;;;;;3.37;3.07;;;;;;;6.52;100.00;95171.84;5043838;28;20220;-77
2020/12/13 09:51:27;;;;;;;4.63;2.80;;;;;;;6.49;100.00;95168.81;5050224;28;20221;-80
2020/12/13 09:53:54;;;;;;;3.33;2.80;;;;;;;6.46;100.00;95174.25;5050698;28;20225;-78
2020/12/13 09:56:20;;;;;;;3.60;2.90;;;;;;;6.50;100.00;95172.97;5043909;28;20201;-79
2020/12/13 09:58:46;;;;;;;5.80;5.00;;;;;;;6.52;100.00;95171.03;5045561;28;20656;-76
2020/12/13 10:01:13;;;;;;;3.00;2.80;;;;;;;6.48;100.00;95172.31;5036372;28;20221;-80
2020/12/13 10:03:42;;;;;;;3.03;2.77;;;;;;;6.49;100.00;95176.47;5035787;28;20843;-75
2020/12/13 10:06:32;;;;;;;4.63;2.80;;;;;;;6.51;100.00;95177.91;5039284;28;20613;-79
2020/12/13 10:09:04;;;;;;;2.80;2.60;;;;;;;6.49;100.00;95173.91;5053870;28;20236;-80
2020/12/13 10:11:31;;;;;;;2.70;2.50;;;;;;;6.53;99.85;95177.75;5054438;28;20244;-79
2020/12/13 10:13:58;;;;;;;2.70;2.50;;;;;;;6.52;99.41;95176.16;5041099;28;20214;-78
2020/12/13 10:16:24;;;;;;;3.30;3.00;;;;;;;6.58;99.40;95178.06;5034439;28;20210;-79
2020/12/13 10:18:50;;;;;;;3.30;2.53;;;;;;;6.59;99.09;95172.78;5046831;28;20201;-79
2020/12/13 10:21:20;;;;;;;2.73;2.53;;;;;;;6.65;99.31;95179.00;5054459;28;20233;-79
2020/12/13 10:23:46;;;;;;;2.80;2.60;;;;;;;6.71;98.69;95173.25;5043176;28;20190;-83
2020/12/13 10:26:13;;;;;;;2.97;2.50;;;;;;;6.74;97.76;95182.34;5035147;28;20205;-87
2020/12/13 10:28:39;;;;;;;2.50;2.30;;;;;;;6.76;98.37;95185.53;5034917;28;20203;-79
2020/12/13 10:31:05;;;;;;;3.13;2.10;;;;;;;6.84;97.68;95185.53;5035145;28;20233;-78
2020/12/13 10:33:31;;;;;;;2.20;2.10;;;;;;;6.74;96.65;95180.56;5043966;28;20221;-81
2020/12/13 10:35:56;;;;;;;2.40;2.20;;;;;;;6.71;96.86;95177.56;5034670;28;20235;-78
2020/12/13 10:38:22;;;;;;;5.23;4.73;;;;;;;6.78;96.92;95181.06;5033986;28;20198;-79
2020/12/13 10:40:48;;;;;;;2.50;2.30;;;;;;;6.87;96.54;95178.34;5053397;28;20221;-77
2020/12/13 10:43:15;;;;;;;2.20;2.00;;;;;;;6.89;96.48;95180.75;5054081;28;20276;-77
2020/12/13 10:45:41;;;;;;;2.23;2.03;;;;;;;6.89;95.96;95178.97;5073881;22;20788;-77
2020/12/13 10:48:07;;;;;;;2.17;1.97;;;;;;;6.89;96.17;95180.75;5053053;28;20201;-77
2020/12/13 10:50:37;;;;;;;3.17;2.37;;;;;;;6.88;95.74;95181.69;5052724;28;20198;-75
2020/12/13 10:53:03;;;;;;;2.10;1.90;;;;;;;6.90;96.16;95170.34;5034392;28;20261;-77
2020/12/13 10:55:29;;;;;;;2.00;1.80;;;;;;;6.89;95.97;95170.50;5045170;28;20583;-77
2020/12/13 10:57:55;;;;;;;2.30;2.10;;;;;;;6.88;96.57;95179.94;5033656;28;20202;-76
2020/12/13 11:00:23;;;;;;;2.63;2.13;;;;;;;6.94;95.73;95168.22;5037696;28;20202;-75
2020/12/13 11:02:49;;;;;;;2.83;1.83;;;;;;;6.93;95.26;95166.63;5033466;28;20237;-76
2020/12/13 11:05:15;;;;;;;1.97;1.80;;;;;;;6.96;95.15;95171.41;5044592;28;20712;-76
2020/12/13 11:07:41;;;;;;;2.50;1.70;;;;;;;6.93;94.08;95164.88;5032314;28;20252;-75
2020/12/13 11:10:07;;;;;;;1.77;1.60;;;;;;;6.96;93.89;95183.41;5037094;28;20206;-77
2020/12/13 11:12:33;;;;;;;1.80;1.70;;;;;;;6.88;93.72;95179.13;5033748;28;20205;-75
2020/12/13 11:14:59;;;;;;;2.50;2.30;;;;;;;6.89;94.34;95171.28;5044235;28;20584;-77
2020/12/13 11:17:26;;;;;;;1.80;1.70;;;;;;;6.93;94.53;95171.75;5033359;28;20202;-76
2020/12/13 11:19:51;;;;;;;2.00;1.77;;;;;;;6.98;94.21;95174.63;5043443;28;20568;-77
2020/12/13 11:22:17;;;;;;;1.80;1.50;;;;;;;6.92;94.32;95168.41;5051962;28;20228;-76
2020/12/13 11:24:44;;;;;;;1.83;1.70;;;;;;;6.88;94.56;95168.91;5034659;28;20194;-75
2020/12/13 11:27:10;;;;;;;1.50;1.40;;;;;;;6.86;96.07;95171.63;5032859;28;20206;-74
2020/12/13 11:29:37;;;;;;;2.90;1.60;;;;;;;6.89;96.15;95168.75;5035429;28;20204;-75
2020/12/13 11:32:04;;;;;;;1.60;1.50;;;;;;;6.98;95.90;95169.50;5033298;28;20209;-76
2020/12/13 11:34:31;;;;;;;1.70;1.60;;;;;;;7.07;96.04;95172.84;5050308;28;20217;-75
2020/12/13 11:36:57;;;;;;;1.63;1.53;;;;;;;6.90;96.37;95178.00;5052869;28;20216;-76
2020/12/13 11:39:23;;;;;;;3.37;1.90;;;;;;;6.86;97.73;95179.28;5036008;28;20597;-76
2020/12/13 11:41:49;;;;;;;1.80;1.60;;;;;;;6.89;97.65;95180.75;5033221;28;20202;-75
2020/12/13 11:44:15;;;;;;;2.40;1.60;;;;;;;6.88;97.96;95184.25;5033813;28;20203;-76
2020/12/13 11:46:41;;;;;;;2.10;1.90;;;;;;;6.93;97.43;95187.91;5032181;28;20887;-76